createdAt,value
2022-12-29T00:01:06.679Z,2.89
2022-12-29T00:06:04.699Z,2.76
2022-12-29T00:11:03.659Z,2.64
2022-12-29T00:16:02.966Z,2.56
2022-12-29T00:21:18.375Z,2.40
2022-12-29T00:26:34.422Z,2.32
2022-12-29T00:31:51.464Z,2.32
2022-12-29T00:36:49.597Z,2.34
2022-12-29T00:42:04.919Z,2.37
2022-12-29T00:47:07.816Z,2.43
2022-12-29T00:52:06.459Z,2.44
2022-12-29T00:57:06.376Z,2.49
2022-12-29T01:02:06.964Z,2.47
2022-12-29T01:07:05.261Z,2.44
2022-12-29T01:12:03.273Z,2.44
2022-12-29T01:17:01.146Z,2.37
2022-12-29T01:22:00.342Z,2.31
2022-12-29T01:26:59.472Z,2.24
2022-12-29T01:31:57.339Z,2.18
2022-12-29T01:36:55.213Z,2.11
2022-12-29T01:41:54.421Z,2.08
2022-12-29T01:46:53.605Z,1.88
2022-12-29T01:51:56.481Z,1.69
2022-12-29T01:56:57.832Z,1.53
2022-12-29T02:01:56.466Z,1.29
2022-12-29T02:06:56.050Z,1.33
2022-12-29T02:11:55.449Z,1.33
2022-12-29T02:16:59.505Z,1.24
2022-12-29T02:22:02.412Z,1.47
2022-12-29T02:27:18.257Z,0.98
2022-12-29T02:32:21.906Z,0.93
2022-12-29T02:37:21.805Z,0.77
2022-12-29T02:42:25.388Z,0.81
2022-12-29T02:47:30.304Z,0.76
2022-12-29T02:52:29.996Z,0.77
2022-12-29T02:57:32.175Z,0.77
2022-12-29T03:02:50.190Z,0.83
2022-12-29T03:07:52.835Z,0.78
2022-12-29T03:13:11.668Z,0.76
2022-12-29T03:18:14.140Z,0.67
2022-12-29T03:23:13.673Z,0.63
2022-12-29T03:28:14.138Z,0.63
2022-12-29T03:33:19.197Z,0.60
2022-12-29T03:38:18.407Z,0.57
2022-12-29T03:43:17.851Z,0.53
2022-12-29T03:48:19.036Z,0.32
2022-12-29T03:53:18.101Z,0.45
2022-12-29T03:58:16.923Z,0.45
2022-12-29T04:03:31.570Z,0.47
2022-12-29T04:08:29.437Z,0.45
2022-12-29T04:13:27.442Z,0.51
2022-12-29T04:18:25.333Z,0.49
2022-12-29T04:23:25.234Z,0.49
2022-12-29T04:28:23.451Z,0.51
2022-12-29T04:33:34.078Z,0.42
2022-12-29T04:38:33.910Z,0.38
2022-12-29T04:43:34.858Z,0.30
2022-12-29T04:48:51.218Z,0.28
2022-12-29T04:54:09.068Z,0.25
2022-12-29T04:59:08.401Z,0.27
2022-12-29T05:04:06.650Z,0.34
2022-12-29T05:09:04.574Z,0.27
2022-12-29T05:14:03.807Z,0.20
2022-12-29T05:19:01.832Z,0.16
2022-12-29T05:24:00.980Z,0.00
2022-12-29T05:29:01.019Z,-0.02
2022-12-29T05:34:00.351Z,0.03
2022-12-29T05:38:59.762Z,-0.08
2022-12-29T05:43:57.809Z,-0.12
2022-12-29T05:48:58.547Z,-0.05
2022-12-29T05:54:23.944Z,0.01
2022-12-29T05:59:23.021Z,0.00
2022-12-29T06:04:22.163Z,0.03
2022-12-29T06:09:20.176Z,0.12
2022-12-29T06:14:19.771Z,0.21
2022-12-29T06:19:17.710Z,0.31
2022-12-29T06:24:16.271Z,1.06
2022-12-29T06:29:17.784Z,2.36
2022-12-29T06:34:17.231Z,3.37
2022-12-29T06:39:15.365Z,4.38
2022-12-29T06:44:20.374Z,5.18
2022-12-29T06:49:23.823Z,5.70
2022-12-29T06:54:21.758Z,6.22
2022-12-29T06:59:19.908Z,6.58
2022-12-29T07:04:17.708Z,6.66
2022-12-29T07:09:17.043Z,6.88
2022-12-29T07:14:15.290Z,6.47
2022-12-29T07:19:13.381Z,6.83
2022-12-29T07:24:11.828Z,7.49
2022-12-29T07:29:11.076Z,8.02
2022-12-29T07:34:10.438Z,8.37
2022-12-29T07:39:10.784Z,8.75
2022-12-29T07:44:11.946Z,9.36
2022-12-29T07:49:35.975Z,9.69
2022-12-29T07:54:33.859Z,10.18
2022-12-29T07:59:34.591Z,10.34
2022-12-29T08:04:32.434Z,10.86
2022-12-29T08:09:30.274Z,11.76
2022-12-29T08:14:28.165Z,11.52
2022-12-29T08:19:27.420Z,12.51
2022-12-29T08:24:25.625Z,12.89
2022-12-29T08:29:23.752Z,13.07
2022-12-29T08:34:21.669Z,13.32
2022-12-29T08:39:21.040Z,13.22
2022-12-29T08:44:19.153Z,13.15
2022-12-29T08:49:17.412Z,13.44
2022-12-29T08:54:15.248Z,14.10
2022-12-29T08:59:14.920Z,13.66
2022-12-29T09:04:16.686Z,14.12
2022-12-29T09:09:15.857Z,14.11
2022-12-29T09:14:15.290Z,14.80
2022-12-29T09:19:13.092Z,14.87
2022-12-29T09:24:10.936Z,15.07
2022-12-29T09:29:08.817Z,14.43
2022-12-29T09:34:08.040Z,14.40
2022-12-29T09:39:05.947Z,14.73
2022-12-29T09:44:08.155Z,15.24
2022-12-29T09:49:18.059Z,14.90
2022-12-29T09:54:25.128Z,14.70
2022-12-29T09:59:25.899Z,15.15
2022-12-29T10:04:27.785Z,15.96
2022-12-29T10:09:29.072Z,14.89
2022-12-29T10:14:37.931Z,15.21
2022-12-29T10:19:44.980Z,16.72
2022-12-29T10:24:45.264Z,16.97
2022-12-29T10:29:46.893Z,16.82
2022-12-29T10:34:47.736Z,17.02
2022-12-29T10:39:47.552Z,17.24
2022-12-29T10:44:45.432Z,17.63
2022-12-29T10:49:44.900Z,17.42
2022-12-29T10:54:47.459Z,17.52
2022-12-29T10:59:45.398Z,17.67
2022-12-29T11:04:48.651Z,17.97
2022-12-29T11:09:48.330Z,17.64
2022-12-29T11:14:46.143Z,17.60
2022-12-29T11:19:43.965Z,17.93
2022-12-29T11:24:46.075Z,18.18
2022-12-29T11:29:45.489Z,17.58
2022-12-29T11:34:43.305Z,17.03
2022-12-29T11:39:43.173Z,16.15
2022-12-29T11:44:44.436Z,16.04
2022-12-29T11:49:43.653Z,16.89
2022-12-29T11:54:41.591Z,16.25
2022-12-29T11:59:45.605Z,16.81
2022-12-29T12:04:45.429Z,17.75
2022-12-29T12:09:45.868Z,18.19
2022-12-29T12:14:49.063Z,18.53
2022-12-29T12:20:04.991Z,18.50
2022-12-29T12:25:06.475Z,18.61
2022-12-29T12:30:06.327Z,18.77
2022-12-29T12:35:06.494Z,17.94
2022-12-29T12:40:13.547Z,16.97
2022-12-29T12:45:28.706Z,17.82
2022-12-29T12:50:34.242Z,18.41
2022-12-29T12:55:38.974Z,17.83
2022-12-29T13:00:40.615Z,17.69
2022-12-29T13:05:52.469Z,16.88
2022-12-29T13:10:53.840Z,15.99
2022-12-29T13:15:54.500Z,16.24
2022-12-29T13:20:56.272Z,16.47
2022-12-29T13:25:58.566Z,15.92
2022-12-29T13:31:00.099Z,15.08
2022-12-29T13:36:01.765Z,14.19
2022-12-29T13:41:02.785Z,13.68
2022-12-29T13:46:02.151Z,13.17
2022-12-29T13:51:03.237Z,12.83
2022-12-29T13:56:05.319Z,12.22
2022-12-29T14:01:06.105Z,11.77
2022-12-29T14:06:14.828Z,11.42
2022-12-29T14:11:13.791Z,11.13
2022-12-29T14:16:23.259Z,11.01
2022-12-29T14:21:24.443Z,10.86
2022-12-29T14:26:36.186Z,10.71
2022-12-29T14:31:42.092Z,10.55
2022-12-29T14:36:42.286Z,10.37
2022-12-29T14:41:40.803Z,10.21
2022-12-29T14:46:49.974Z,10.03
2022-12-29T14:51:49.899Z,9.87
2022-12-29T14:56:48.014Z,9.73
2022-12-29T15:01:50.460Z,9.45
2022-12-29T15:06:51.245Z,9.35
2022-12-29T15:11:51.930Z,9.14
2022-12-29T15:16:49.892Z,8.99
2022-12-29T15:21:49.412Z,8.72
2022-12-29T15:26:48.360Z,8.47
2022-12-29T15:31:48.408Z,8.42
2022-12-29T15:36:46.270Z,8.33
2022-12-29T15:42:01.541Z,8.16
2022-12-29T15:46:59.735Z,7.93
2022-12-29T15:51:57.685Z,7.74
2022-12-29T15:56:57.419Z,7.41
2022-12-29T16:01:56.004Z,7.37
2022-12-29T16:06:58.622Z,7.12
2022-12-29T16:12:00.004Z,7.08
2022-12-29T16:17:00.180Z,6.84
2022-12-29T16:22:00.128Z,6.81
2022-12-29T16:27:01.538Z,6.87
2022-12-29T16:32:04.003Z,6.41
2022-12-29T16:37:02.464Z,6.29
2022-12-29T16:42:01.896Z,6.18
2022-12-29T16:47:04.789Z,6.14
2022-12-29T16:52:03.306Z,5.82
2022-12-29T16:57:02.650Z,5.71
2022-12-29T17:02:02.378Z,5.68
2022-12-29T17:07:00.548Z,5.71
2022-12-29T17:12:08.373Z,5.76
2022-12-29T17:17:13.401Z,5.75
2022-12-29T17:22:12.547Z,5.73
2022-12-29T17:27:20.886Z,5.75
2022-12-29T17:32:20.563Z,5.85
2022-12-29T17:37:28.212Z,5.75
2022-12-29T17:42:26.126Z,5.48
2022-12-29T17:47:25.326Z,5.37
2022-12-29T17:52:23.236Z,5.37
2022-12-29T17:57:22.186Z,5.39
2022-12-29T18:02:24.939Z,5.41
2022-12-29T18:07:30.982Z,5.30
2022-12-29T18:12:34.415Z,5.24
2022-12-29T18:17:32.303Z,5.21
2022-12-29T18:22:32.311Z,5.19
2022-12-29T18:27:30.439Z,4.98
2022-12-29T18:32:28.384Z,4.90
2022-12-29T18:37:26.248Z,4.81
2022-12-29T18:42:25.428Z,4.81
2022-12-29T18:47:23.366Z,4.57
2022-12-29T18:52:21.222Z,4.51
2022-12-29T18:57:19.358Z,4.42
2022-12-29T19:02:18.807Z,4.32
2022-12-29T19:07:16.867Z,4.37
2022-12-29T19:12:16.395Z,4.36
2022-12-29T19:17:14.553Z,4.25
2022-12-29T19:22:13.760Z,4.26
2022-12-29T19:27:11.761Z,4.32
2022-12-29T19:32:09.602Z,3.95
2022-12-29T19:37:07.543Z,4.14
2022-12-29T19:42:06.955Z,3.91
2022-12-29T19:47:04.984Z,3.76
2022-12-29T19:52:02.910Z,3.68
2022-12-29T19:57:00.808Z,3.48
2022-12-29T20:02:00.326Z,3.43
2022-12-29T20:06:58.417Z,3.22
2022-12-29T20:11:56.279Z,3.28
2022-12-29T20:17:10.866Z,3.00
2022-12-29T20:22:11.604Z,2.86
2022-12-29T20:27:10.465Z,2.96
2022-12-29T20:32:08.903Z,2.98
2022-12-29T20:37:06.943Z,3.10
2022-12-29T20:42:06.515Z,3.13
2022-12-29T20:47:06.071Z,3.22
2022-12-29T20:52:06.654Z,2.86
2022-12-29T20:57:06.337Z,2.99
2022-12-29T21:02:04.755Z,2.77
2022-12-29T21:07:02.789Z,2.70
2022-12-29T21:12:02.920Z,2.88
2022-12-29T21:17:02.495Z,2.89
2022-12-29T21:22:00.395Z,2.84
2022-12-29T21:26:58.249Z,2.87
2022-12-29T21:31:58.692Z,2.80
2022-12-29T21:37:00.271Z,2.57
2022-12-29T21:42:00.411Z,2.55
2022-12-29T21:46:58.586Z,2.35
2022-12-29T21:51:57.737Z,2.38
2022-12-29T21:56:57.004Z,2.58
2022-12-29T22:02:12.137Z,2.36
2022-12-29T22:07:28.103Z,2.41
2022-12-29T22:12:44.984Z,2.53
2022-12-29T22:17:48.569Z,2.61
2022-12-29T22:22:47.230Z,2.67
2022-12-29T22:27:46.803Z,2.58
2022-12-29T22:32:50.186Z,2.63
2022-12-29T22:37:47.999Z,2.46
2022-12-29T22:42:49.739Z,2.46
2022-12-29T22:47:51.089Z,2.54
2022-12-29T22:52:49.821Z,2.57
2022-12-29T22:57:49.166Z,2.48
2022-12-29T23:02:47.252Z,2.20
2022-12-29T23:07:45.339Z,2.12
2022-12-29T23:12:43.205Z,2.25
2022-12-29T23:17:42.648Z,2.34
2022-12-29T23:22:40.573Z,2.36
2022-12-29T23:27:38.486Z,2.54
2022-12-29T23:32:37.355Z,2.40
2022-12-29T23:37:36.811Z,2.30
2022-12-29T23:42:34.750Z,2.37
2022-12-29T23:47:32.581Z,2.29
2022-12-29T23:52:30.431Z,2.30
2022-12-29T23:57:29.638Z,2.40
